Time;durP1;ratioP1;P1;durP2;ratioP2;P2;SDS_P1;SDS_P2;PMS_P1;PMS_P2;Temp;Humidity;BMP_temperature;BMP_pressure;BME280_temperature;BME280_humidity;BME280_pressure;Samples;Min_cycle;Max_cycle;Signal;HPM_P1;HPM_P2
2021/10/12 00:00:29;;;;;;;35.70;18.50;;;9.40;99.90;;;;;;5005263;28;20157;-82
2021/10/12 00:02:55;;;;;;;32.43;18.73;;;9.50;99.90;;;;;;5020322;28;20522;-82
2021/10/12 00:05:21;;;;;;;29.77;18.07;;;9.40;99.90;;;;;;5019659;28;20228;-82
2021/10/12 00:07:47;;;;;;;31.20;19.40;;;9.40;99.90;;;;;;5019680;28;20188;-82
2021/10/12 00:10:13;;;;;;;33.97;20.10;;;9.20;99.90;;;;;;5019517;28;20154;-82
2021/10/12 00:12:39;;;;;;;35.20;18.50;;;9.30;99.90;;;;;;5019231;28;20487;-80
2021/10/12 00:15:06;;;;;;;37.93;21.80;;;9.40;99.90;;;;;;5019124;28;20840;-82
2021/10/12 00:17:32;;;;;;;34.70;21.43;;;9.40;99.90;;;;;;5017513;28;20168;-82
2021/10/12 00:19:58;;;;;;;38.80;21.87;;;9.50;99.90;;;;;;5018981;28;20396;-83
2021/10/12 00:22:23;;;;;;;25.33;19.03;;;9.50;99.90;;;;;;5019210;28;20244;-83
2021/10/12 00:24:49;;;;;;;29.13;18.17;;;9.30;99.90;;;;;;5019973;28;20253;-83
2021/10/12 00:27:15;;;;;;;34.37;20.47;;;9.40;99.90;;;;;;5001819;28;20181;-82
2021/10/12 00:29:41;;;;;;;27.00;18.20;;;9.30;99.90;;;;;;5019798;28;20744;-82
2021/10/12 00:32:08;;;;;;;27.03;17.03;;;9.20;99.90;;;;;;5020678;28;20217;-82
2021/10/12 00:34:34;;;;;;;31.63;19.77;;;9.00;99.90;;;;;;5022509;28;20176;-82
2021/10/12 00:37:00;;;;;;;37.13;22.27;;;8.90;99.90;;;;;;5021250;28;20400;-82
2021/10/12 00:39:26;;;;;;;28.00;17.43;;;9.00;99.90;;;;;;5021407;28;20204;-82
2021/10/12 00:41:52;;;;;;;29.27;18.63;;;9.00;99.90;;;;;;5018974;28;20664;-83
2021/10/12 00:44:17;;;;;;;36.77;20.53;;;8.80;99.90;;;;;;5022937;28;20560;-83
2021/10/12 00:46:43;;;;;;;32.40;18.10;;;8.80;99.90;;;;;;5022511;28;20396;-83
2021/10/12 00:49:09;;;;;;;27.50;18.70;;;8.90;99.90;;;;;;5019625;28;20188;-82
2021/10/12 00:51:35;;;;;;;32.97;19.10;;;8.60;99.90;;;;;;5018354;28;20162;-82
2021/10/12 00:54:01;;;;;;;29.47;17.83;;;8.50;99.90;;;;;;5019983;28;20397;-81
2021/10/12 00:56:26;;;;;;;23.20;17.70;;;8.50;99.90;;;;;;5022743;28;20180;-82
2021/10/12 00:58:52;;;;;;;30.73;17.53;;;8.70;99.90;;;;;;5022780;28;20177;-80
2021/10/12 01:01:18;;;;;;;31.13;16.83;;;8.70;99.90;;;;;;5021462;28;20219;-82
2021/10/12 01:03:44;;;;;;;26.97;17.90;;;8.60;99.90;;;;;;5020949;28;20165;-81
2021/10/12 01:06:11;;;;;;;33.37;20.60;;;8.50;99.90;;;;;;5022306;28;20172;-81
2021/10/12 01:08:37;;;;;;;33.17;20.20;;;8.70;99.90;;;;;;5022139;28;20481;-81
2021/10/12 01:11:03;;;;;;;38.40;22.07;;;8.90;99.90;;;;;;5022770;28;20424;-81
2021/10/12 01:13:29;;;;;;;33.50;20.07;;;8.80;99.90;;;;;;5019166;28;20261;-82
2021/10/12 01:15:55;;;;;;;38.83;21.00;;;8.80;99.90;;;;;;5018402;28;20432;-83
2021/10/12 01:18:21;;;;;;;29.27;19.13;;;8.80;99.90;;;;;;5017538;28;20165;-83
2021/10/12 01:20:50;;;;;;;33.33;19.40;;;8.90;99.90;;;;;;5018757;28;20216;-83
2021/10/12 01:23:16;;;;;;;31.90;21.17;;;8.90;99.90;;;;;;5018758;28;20219;-82
2021/10/12 01:25:41;;;;;;;33.73;21.47;;;9.00;99.90;;;;;;5018480;28;20401;-82
2021/10/12 01:28:08;;;;;;;29.90;18.37;;;9.20;99.90;;;;;;5018434;28;20165;-83
2021/10/12 01:30:36;;;;;;;39.47;20.63;;;8.90;99.90;;;;;;5018711;28;20169;-83
2021/10/12 01:33:03;;;;;;;34.80;18.53;;;8.90;99.90;;;;;;5002354;28;20951;-83
2021/10/12 01:35:29;;;;;;;35.03;18.87;;;8.90;99.90;;;;;;5022521;28;20876;-83
2021/10/12 01:37:55;;;;;;;26.17;17.73;;;8.70;99.90;;;;;;5022312;28;20392;-83
2021/10/12 01:40:21;;;;;;;28.50;19.87;;;8.60;99.90;;;;;;5022452;28;20424;-83
2021/10/12 01:42:47;;;;;;;33.53;18.70;;;8.50;99.90;;;;;;5022050;28;20487;-82
2021/10/12 01:45:14;;;;;;;31.57;18.27;;;8.50;99.90;;;;;;5022019;28;20169;-83
2021/10/12 01:47:40;;;;;;;32.07;18.37;;;8.50;99.90;;;;;;5022271;28;20388;-82
2021/10/12 01:50:09;;;;;;;30.17;17.40;;;8.40;99.90;;;;;;5022058;28;20425;-82
2021/10/12 01:52:35;;;;;;;30.33;20.77;;;8.50;99.90;;;;;;5020397;28;20416;-83
2021/10/12 01:55:01;;;;;;;35.87;19.53;;;8.50;99.90;;;;;;5021437;28;20396;-82
2021/10/12 01:57:28;;;;;;;30.00;16.73;;;8.50;99.90;;;;;;5022099;28;20396;-82
2021/10/12 01:59:53;;;;;;;40.97;19.17;;;8.30;99.90;;;;;;5021779;28;20406;-82
2021/10/12 02:02:19;;;;;;;35.13;21.20;;;8.50;99.90;;;;;;5021960;28;20452;-82
2021/10/12 02:04:45;;;;;;;23.07;16.67;;;8.50;99.90;;;;;;5021779;28;20165;-82
2021/10/12 02:07:11;;;;;;;29.43;18.97;;;8.40;99.90;;;;;;5021653;28;20405;-82
2021/10/12 02:09:37;;;;;;;28.40;17.90;;;8.60;99.90;;;;;;5022093;28;20201;-82
2021/10/12 02:12:03;;;;;;;32.30;18.57;;;8.40;99.90;;;;;;5021807;28;20224;-82
2021/10/12 02:14:29;;;;;;;32.60;19.83;;;8.40;99.90;;;;;;5022196;28;20196;-82
2021/10/12 02:16:55;;;;;;;23.83;16.73;;;8.50;99.90;;;;;;5024309;28;20400;-82
2021/10/12 02:19:20;;;;;;;30.57;19.00;;;8.50;99.90;;;;;;5025287;28;20161;-82
2021/10/12 02:21:46;;;;;;;31.43;18.40;;;8.60;99.90;;;;;;5026624;28;20229;-80
2021/10/12 02:24:12;;;;;;;30.43;17.27;;;8.60;99.90;;;;;;5025711;28;20161;-80
2021/10/12 02:26:38;;;;;;;32.27;20.80;;;8.70;99.90;;;;;;5023643;28;20257;-83
2021/10/12 02:29:04;;;;;;;28.00;18.17;;;8.90;99.90;;;;;;5021990;28;20165;-81
2021/10/12 02:31:30;;;;;;;27.17;18.00;;;8.80;99.90;;;;;;5021267;28;20889;-82
2021/10/12 02:33:56;;;;;;;22.00;17.00;;;8.60;99.90;;;;;;5022713;28;20438;-83
2021/10/12 02:36:22;;;;;;;23.87;16.20;;;8.50;99.90;;;;;;5023182;28;20168;-79
2021/10/12 02:38:48;;;;;;;31.70;18.80;;;8.50;99.90;;;;;;5028347;28;20747;-79
2021/10/12 02:41:14;;;;;;;29.30;15.60;;;8.40;99.90;;;;;;5027142;28;20212;-79
2021/10/12 02:43:40;;;;;;;28.30;17.93;;;8.30;99.90;;;;;;5028430;28;20508;-79
2021/10/12 02:46:06;;;;;;;28.80;19.20;;;8.20;99.90;;;;;;5028264;28;20161;-80
2021/10/12 02:48:32;;;;;;;29.30;15.80;;;8.20;99.90;;;;;;5025997;28;20165;-80
2021/10/12 02:50:58;;;;;;;21.40;16.90;;;8.20;99.90;;;;;;5027872;28;20393;-79
2021/10/12 02:53:24;;;;;;;22.33;16.80;;;8.30;99.90;;;;;;5028377;28;20219;-79
2021/10/12 02:55:50;;;;;;;26.17;17.97;;;8.30;99.90;;;;;;5027358;28;20396;-80
2021/10/12 02:58:16;;;;;;;32.60;17.50;;;8.50;99.90;;;;;;5023853;28;20389;-82
2021/10/12 03:00:41;;;;;;;30.80;18.13;;;8.60;99.90;;;;;;5020702;28;20173;-83
2021/10/12 03:03:09;;;;;;;35.80;19.03;;;8.60;99.90;;;;;;5019944;28;20169;-83
2021/10/12 03:05:35;;;;;;;21.57;16.83;;;8.60;99.90;;;;;;5019457;28;20499;-82
2021/10/12 03:08:01;;;;;;;34.43;19.23;;;8.80;99.90;;;;;;5020179;28;20450;-83
2021/10/12 03:10:27;;;;;;;31.57;18.57;;;8.80;99.90;;;;;;5020169;28;20400;-82
2021/10/12 03:12:52;;;;;;;38.17;18.57;;;8.80;99.90;;;;;;5020562;28;20189;-82
2021/10/12 03:15:18;;;;;;;35.10;18.73;;;9.00;99.90;;;;;;5020258;28;20169;-82
2021/10/12 03:17:44;;;;;;;36.80;19.07;;;9.00;99.90;;;;;;5020803;28;20169;-82
2021/10/12 03:20:10;;;;;;;28.90;18.03;;;8.90;99.90;;;;;;5021333;28;20173;-83
2021/10/12 03:22:36;;;;;;;26.30;17.83;;;8.80;99.90;;;;;;5021030;28;20467;-82
2021/10/12 03:25:03;;;;;;;27.17;18.40;;;8.80;99.90;;;;;;5003918;28;20296;-82
2021/10/12 03:27:28;;;;;;;30.07;17.27;;;8.80;99.90;;;;;;5022313;28;20404;-83
2021/10/12 03:29:54;;;;;;;27.70;18.00;;;8.70;99.90;;;;;;5021952;28;20401;-83
2021/10/12 03:32:20;;;;;;;32.87;18.67;;;8.70;99.90;;;;;;5022141;28;20232;-82
2021/10/12 03:34:46;;;;;;;36.87;18.63;;;8.70;99.90;;;;;;5021163;28;20277;-83
2021/10/12 03:37:12;;;;;;;30.17;17.53;;;8.80;99.90;;;;;;5029134;28;20181;-79
2021/10/12 03:39:37;;;;;;;28.13;17.17;;;8.80;99.90;;;;;;5027344;28;20165;-80
2021/10/12 03:42:03;;;;;;;31.53;19.57;;;8.70;99.90;;;;;;5025138;28;20248;-82
2021/10/12 03:44:29;;;;;;;45.73;17.07;;;8.80;99.90;;;;;;5025332;28;20173;-80
2021/10/12 03:46:55;;;;;;;28.77;18.50;;;8.70;99.90;;;;;;5028624;28;20185;-83
2021/10/12 03:49:21;;;;;;;34.37;18.40;;;8.70;99.90;;;;;;5028205;28;20432;-79
2021/10/12 03:51:47;;;;;;;28.20;16.00;;;8.60;99.90;;;;;;5026561;28;20545;-79
2021/10/12 03:54:14;;;;;;;24.60;17.47;;;8.70;99.90;;;;;;5026996;28;20169;-77
2021/10/12 03:56:41;;;;;;;23.77;18.30;;;8.60;99.90;;;;;;5026087;28;20165;-80
2021/10/12 03:59:07;;;;;;;30.07;19.10;;;8.60;99.90;;;;;;5026161;28;20495;-79
2021/10/12 04:01:33;;;;;;;24.67;16.73;;;8.70;99.90;;;;;;5026340;28;20447;-79
2021/10/12 04:04:01;;;;;;;28.30;17.80;;;8.70;99.90;;;;;;5027935;28;20388;-79
2021/10/12 04:06:27;;;;;;;32.30;17.90;;;8.70;99.90;;;;;;5020364;28;20495;-83
2021/10/12 04:08:52;;;;;;;25.63;16.80;;;8.70;99.90;;;;;;5019627;28;20393;-82
2021/10/12 04:11:18;;;;;;;28.10;19.17;;;8.70;99.90;;;;;;5017885;28;20913;-82
2021/10/12 04:13:44;;;;;;;35.33;18.00;;;8.80;99.90;;;;;;5001640;28;20284;-82
2021/10/12 04:16:10;;;;;;;30.40;16.30;;;8.70;99.90;;;;;;5018896;28;20625;-83
2021/10/12 04:18:36;;;;;;;27.80;17.77;;;8.70;99.90;;;;;;5019638;28;20255;-82
2021/10/12 04:21:02;;;;;;;25.87;16.40;;;8.60;99.90;;;;;;5018727;28;20207;-83
2021/10/12 04:23:28;;;;;;;24.23;16.67;;;8.60;99.90;;;;;;5019410;28;20404;-83
2021/10/12 04:25:54;;;;;;;34.60;17.07;;;8.60;99.90;;;;;;5017346;28;20388;-82
2021/10/12 04:28:20;;;;;;;25.40;16.20;;;8.60;99.90;;;;;;5016757;28;20391;-81
2021/10/12 04:30:46;;;;;;;32.27;18.40;;;8.60;99.90;;;;;;5018749;28;20485;-82
2021/10/12 04:33:14;;;;;;;28.03;18.87;;;8.70;99.90;;;;;;5016467;28;20221;-82
2021/10/12 04:35:41;;;;;;;34.20;18.00;;;8.90;99.90;;;;;;5017121;28;20424;-83
2021/10/12 04:38:07;;;;;;;27.23;18.73;;;9.00;99.90;;;;;;5016823;28;20435;-82
2021/10/12 04:40:33;;;;;;;30.60;18.60;;;9.10;99.90;;;;;;5018665;28;20567;-82
2021/10/12 04:43:02;;;;;;;32.43;17.23;;;9.10;99.90;;;;;;5018561;28;20440;-83
2021/10/12 04:45:29;;;;;;;30.33;17.30;;;9.10;99.90;;;;;;5018895;28;20393;-82
2021/10/12 04:47:55;;;;;;;34.00;16.73;;;9.00;99.90;;;;;;5001207;28;20395;-82
2021/10/12 04:50:21;;;;;;;23.67;15.50;;;8.90;99.90;;;;;;5001142;28;20446;-83
2021/10/12 04:52:47;;;;;;;31.43;15.97;;;8.90;99.90;;;;;;5018530;28;20396;-82
2021/10/12 04:55:13;;;;;;;24.87;15.43;;;8.90;99.90;;;;;;5017658;28;20751;-82
2021/10/12 04:57:39;;;;;;;22.90;16.00;;;8.90;99.90;;;;;;5019376;28;20161;-83
2021/10/12 05:00:07;;;;;;;22.23;17.33;;;9.00;99.90;;;;;;5019471;28;20716;-81
2021/10/12 05:02:33;;;;;;;23.57;16.10;;;9.00;99.90;;;;;;5019184;28;20476;-83
2021/10/12 05:04:59;;;;;;;26.07;15.30;;;9.00;99.90;;;;;;5019042;28;20745;-81
2021/10/12 05:07:25;;;;;;;27.50;18.33;;;9.00;99.90;;;;;;5018570;28;20483;-84
2021/10/12 05:09:51;;;;;;;22.43;16.53;;;9.10;99.90;;;;;;5018314;28;20200;-82
2021/10/12 05:12:17;;;;;;;19.30;14.10;;;9.20;99.90;;;;;;5017092;28;20171;-83
2021/10/12 05:14:43;;;;;;;24.73;14.63;;;9.40;99.90;;;;;;5018735;28;20505;-83
2021/10/12 05:17:16;;;;;;;22.80;15.57;;;9.30;99.90;;;;;;5017108;28;20397;-82
2021/10/12 05:19:47;;;;;;;21.97;14.63;;;9.40;99.90;;;;;;5024676;28;20177;-83
2021/10/12 05:22:13;;;;;;;20.60;13.80;;;9.40;99.90;;;;;;5019749;28;20456;-83
2021/10/12 05:24:39;;;;;;;23.07;13.60;;;9.50;99.90;;;;;;5018147;28;20408;-83
2021/10/12 05:27:06;;;;;;;22.57;14.37;;;9.60;99.90;;;;;;5018786;28;20502;-83
2021/10/12 05:29:32;;;;;;;19.93;12.87;;;9.70;99.90;;;;;;5018137;28;20166;-83
2021/10/12 05:31:58;;;;;;;23.47;13.57;;;9.70;99.90;;;;;;5018300;28;20462;-83
2021/10/12 05:34:24;;;;;;;19.30;14.53;;;9.80;99.90;;;;;;5018759;28;20184;-83
2021/10/12 05:36:50;;;;;;;21.53;13.90;;;9.90;99.90;;;;;;5020251;28;20423;-83
2021/10/12 05:39:16;;;;;;;20.90;13.83;;;9.90;99.90;;;;;;5019758;28;20407;-84
2021/10/12 05:41:42;;;;;;;17.23;14.13;;;10.00;99.90;;;;;;5017740;28;20956;-83
2021/10/12 05:44:08;;;;;;;21.93;12.50;;;10.00;99.90;;;;;;5014499;28;20166;-83
2021/10/12 05:46:33;;;;;;;18.57;12.53;;;10.00;99.90;;;;;;5018542;28;20397;-82
2021/10/12 05:48:59;;;;;;;18.37;12.43;;;10.00;99.90;;;;;;5018833;28;20217;-83
2021/10/12 05:51:26;;;;;;;18.13;13.13;;;10.00;99.90;;;;;;5014679;28;20185;-83
2021/10/12 05:53:54;;;;;;;18.67;12.20;;;10.10;99.90;;;;;;5010376;28;20650;-83
2021/10/12 05:56:24;;;;;;;19.43;13.60;;;10.00;99.90;;;;;;5013620;28;20428;-83
2021/10/12 05:58:50;;;;;;;19.37;14.97;;;10.00;99.90;;;;;;5026491;28;20475;-83
2021/10/12 06:01:18;;;;;;;19.63;13.17;;;10.10;99.90;;;;;;5025457;28;20808;-80
2021/10/12 06:03:44;;;;;;;19.10;14.00;;;10.00;99.90;;;;;;5017588;28;20590;-83
2021/10/12 06:06:11;;;;;;;25.30;14.90;;;10.10;99.90;;;;;;5021635;28;20468;-83
2021/10/12 06:08:38;;;;;;;23.13;13.17;;;10.10;99.90;;;;;;5017109;28;20587;-83
2021/10/12 06:11:06;;;;;;;19.90;13.33;;;10.10;99.90;;;;;;5010950;28;20428;-80
2021/10/12 06:13:33;;;;;;;26.73;15.53;;;10.20;99.90;;;;;;5020775;28;20442;-84
2021/10/12 06:15:59;;;;;;;23.97;10.57;;;10.10;99.90;;;;;;5018184;28;20448;-84
2021/10/12 06:18:26;;;;;;;23.30;15.53;;;10.10;99.90;;;;;;5010909;28;20759;-83
2021/10/12 06:20:53;;;;;;;21.50;13.67;;;10.10;99.90;;;;;;5025979;28;20455;-83
2021/10/12 06:23:19;;;;;;;25.00;13.87;;;10.10;99.90;;;;;;5018064;28;20455;-84
2021/10/12 06:25:45;;;;;;;26.20;16.30;;;10.10;99.90;;;;;;5024135;28;20443;-84
2021/10/12 06:28:14;;;;;;;22.60;13.13;;;10.10;99.90;;;;;;5010766;28;20439;-84
2021/10/12 06:30:41;;;;;;;22.07;13.50;;;9.90;99.90;;;;;;5017159;28;20440;-83
2021/10/12 06:33:07;;;;;;;19.47;13.60;;;9.90;99.90;;;;;;5016923;28;20468;-83
2021/10/12 06:35:33;;;;;;;20.67;13.90;;;10.10;99.90;;;;;;5015968;28;20444;-84
2021/10/12 06:37:59;;;;;;;17.13;11.20;;;10.10;99.90;;;;;;5010471;28;20178;-84
2021/10/12 06:40:26;;;;;;;17.80;12.63;;;10.10;99.90;;;;;;5012664;28;20224;-83
2021/10/12 06:42:53;;;;;;;17.97;12.03;;;10.20;99.90;;;;;;5015528;28;20460;-83
2021/10/12 06:45:19;;;;;;;15.97;11.37;;;10.10;99.90;;;;;;5012977;28;20436;-83
2021/10/12 06:47:47;;;;;;;16.87;10.97;;;10.10;99.90;;;;;;5021952;28;20429;-83
2021/10/12 06:50:13;;;;;;;14.80;10.87;;;10.20;99.90;;;;;;5017489;28;20440;-80
2021/10/12 06:52:41;;;;;;;15.67;11.67;;;10.30;99.90;;;;;;5024640;28;20436;-83
2021/10/12 06:55:08;;;;;;;10.13;8.77;;;10.40;99.90;;;;;;5012127;28;20529;-83
2021/10/12 06:57:35;;;;;;;11.13;9.77;;;10.40;99.90;;;;;;4999088;28;20454;-80
2021/10/12 07:00:04;;;;;;;11.20;8.10;;;10.40;99.90;;;;;;5002861;28;20450;-81
2021/10/12 07:02:30;;;;;;;10.60;8.00;;;10.30;99.90;;;;;;5037436;28;20467;-82
2021/10/12 07:04:55;;;;;;;12.20;10.20;;;10.40;99.90;;;;;;4993661;28;20436;-82
2021/10/12 07:07:21;;;;;;;14.43;8.60;;;10.40;99.90;;;;;;5009766;28;20221;-83
2021/10/12 07:09:50;;;;;;;14.13;8.43;;;10.40;99.90;;;;;;5008003;28;20180;-82
2021/10/12 07:12:16;;;;;;;10.07;7.50;;;10.40;99.90;;;;;;5011740;28;20197;-81
2021/10/12 07:14:42;;;;;;;10.10;7.63;;;10.50;99.90;;;;;;5008970;28;20440;-81
2021/10/12 07:17:08;;;;;;;13.20;7.27;;;10.50;99.90;;;;;;5013039;28;20205;-86
2021/10/12 07:19:33;;;;;;;11.93;7.60;;;10.50;99.90;;;;;;5015716;28;20449;-83
2021/10/12 07:21:59;;;;;;;11.10;7.23;;;10.60;99.90;;;;;;5010074;28;20622;-82
2021/10/12 07:24:25;;;;;;;6.77;5.80;;;10.70;99.90;;;;;;5011568;28;20216;-80
2021/10/12 07:26:52;;;;;;;9.70;7.27;;;10.80;99.90;;;;;;5013002;28;20185;-82
2021/10/12 07:29:18;;;;;;;8.27;5.97;;;10.90;99.90;;;;;;5012350;28;20239;-81
2021/10/12 07:31:43;;;;;;;9.67;6.33;;;10.90;99.90;;;;;;5011187;28;20515;-82
2021/10/12 07:34:10;;;;;;;9.57;7.10;;;11.00;99.90;;;;;;5016296;28;20531;-82
2021/10/12 07:36:37;;;;;;;8.10;6.13;;;11.20;99.90;;;;;;5002491;28;20192;-81
2021/10/12 07:39:05;;;;;;;14.43;7.13;;;11.10;99.90;;;;;;5023817;28;20436;-80
2021/10/12 07:41:32;;;;;;;8.57;4.63;;;11.20;99.90;;;;;;5016458;28;20464;-83
2021/10/12 07:43:58;;;;;;;10.33;6.17;;;11.30;99.90;;;;;;5014318;28;20428;-82
2021/10/12 07:46:25;;;;;;;5.83;5.23;;;11.50;99.90;;;;;;5014452;28;20563;-80
2021/10/12 07:48:53;;;;;;;6.60;5.53;;;11.60;99.90;;;;;;5013097;28;20429;-81
2021/10/12 07:51:20;;;;;;;8.73;6.60;;;11.70;99.90;;;;;;5008900;28;20437;-82
2021/10/12 07:53:47;;;;;;;6.97;4.00;;;11.80;99.90;;;;;;5010424;28;20432;-80
2021/10/12 07:56:27;;;;;;;4.77;4.30;;;11.80;99.90;;;;;;5007287;28;20880;-82
2021/10/12 07:58:53;;;;;;;5.50;4.33;;;11.50;99.90;;;;;;5018338;28;20530;-83
2021/10/12 08:01:19;;;;;;;6.40;4.33;;;11.40;99.90;;;;;;5007183;28;20555;-82
2021/10/12 08:03:46;;;;;;;8.20;4.93;;;11.60;99.90;;;;;;5010932;28;20207;-83
2021/10/12 08:06:12;;;;;;;4.67;4.00;;;11.60;99.90;;;;;;5004395;28;21649;-81
2021/10/12 08:08:37;;;;;;;5.10;3.97;;;11.70;99.90;;;;;;5008689;28;20531;-81
2021/10/12 08:11:04;;;;;;;8.80;4.20;;;11.70;99.90;;;;;;5011806;28;20228;-79
2021/10/12 08:13:33;;;;;;;4.70;4.10;;;11.70;99.90;;;;;;5010451;28;20181;-82
2021/10/12 08:16:07;;;;;;;8.80;4.10;;;11.80;99.90;;;;;;4991231;28;20470;-82
2021/10/12 08:18:33;;;;;;;10.47;5.50;;;12.00;99.90;;;;;;5008043;28;20424;-81
2021/10/12 08:20:58;;;;;;;3.77;3.47;;;11.80;99.90;;;;;;5008177;28;20462;-82
2021/10/12 08:23:24;;;;;;;10.00;3.77;;;11.90;99.90;;;;;;5021869;28;20181;-81
2021/10/12 08:25:50;;;;;;;4.13;3.83;;;11.90;99.90;;;;;;5010520;28;20208;-81
2021/10/12 08:28:16;;;;;;;6.63;3.57;;;11.90;99.90;;;;;;5023283;28;20247;-81
2021/10/12 08:30:42;;;;;;;5.40;4.17;;;11.70;99.90;;;;;;5012139;28;20432;-80
2021/10/12 08:33:08;;;;;;;5.60;4.37;;;11.70;99.90;;;;;;5027889;28;20239;-79
2021/10/12 08:35:34;;;;;;;4.80;4.17;;;11.60;99.90;;;;;;5024306;28;20436;-81
2021/10/12 08:38:00;;;;;;;5.07;4.37;;;11.60;99.90;;;;;;5021441;28;20454;-81
2021/10/12 08:40:27;;;;;;;5.17;4.40;;;11.50;99.90;;;;;;5038578;28;20208;-81
2021/10/12 08:42:53;;;;;;;7.50;3.10;;;11.50;99.90;;;;;;5022057;28;20569;-81
2021/10/12 08:45:21;;;;;;;5.53;3.83;;;11.50;99.90;;;;;;5025796;28;20436;-81
2021/10/12 08:47:48;;;;;;;4.07;3.60;;;11.60;99.90;;;;;;5022988;28;20451;-81
2021/10/12 08:50:19;;;;;;;4.30;3.20;;;11.60;99.90;;;;;;5010113;28;20860;-81
2021/10/12 08:52:46;;;;;;;4.63;3.37;;;11.70;99.90;;;;;;5008907;28;20746;-81
2021/10/12 08:55:13;;;;;;;5.90;4.10;;;11.80;99.90;;;;;;5014564;28;20940;-81
2021/10/12 08:57:43;;;;;;;4.10;3.33;;;11.60;99.90;;;;;;5014652;28;20438;-80
2021/10/12 09:00:13;;;;;;;3.70;3.40;;;11.80;99.90;;;;;;5007429;28;20963;-81
2021/10/12 09:02:57;;;;;;;2.63;2.43;;;11.90;99.90;;;;;;4994823;28;20474;-81
2021/10/12 09:05:25;;;;;;;4.53;3.43;;;12.00;99.90;;;;;;5014843;28;20443;-81
2021/10/12 09:07:51;;;;;;;3.20;2.70;;;12.20;99.90;;;;;;5014417;28;20475;-82
2021/10/12 09:10:20;;;;;;;5.80;3.10;;;12.30;99.90;;;;;;4996179;28;20443;-81
2021/10/12 09:12:48;;;;;;;4.73;3.30;;;12.40;99.90;;;;;;5010995;28;20443;-81
2021/10/12 09:15:14;;;;;;;5.20;4.10;;;12.50;99.90;;;;;;5008047;28;20427;-81
2021/10/12 09:17:41;;;;;;;4.80;3.40;;;12.50;99.90;;;;;;5008479;28;20192;-80
2021/10/12 09:20:28;;;;;;;5.90;3.77;;;12.30;99.90;;;;;;5006519;28;20176;-81
2021/10/12 09:23:12;;;;;;;3.70;3.40;;;12.30;99.90;;;;;;5019173;28;20501;-80
2021/10/12 09:25:41;;;;;;;4.10;3.40;;;12.10;99.90;;;;;;5011398;28;20431;-81
2021/10/12 09:28:25;;;;;;;11.60;3.33;;;12.10;99.90;;;;;;5007812;28;20440;-80
2021/10/12 09:30:54;;;;;;;4.03;3.17;;;12.00;99.90;;;;;;5003288;28;20431;-82
2021/10/12 09:33:20;;;;;;;3.70;3.33;;;11.90;99.90;;;;;;5007802;28;20480;-82
2021/10/12 09:35:46;;;;;;;6.33;3.47;;;11.80;99.90;;;;;;5012095;28;20439;-80
2021/10/12 09:38:13;;;;;;;3.50;2.53;;;12.10;99.90;;;;;;5008264;28;20192;-82
2021/10/12 09:40:42;;;;;;;4.60;2.77;;;12.20;99.90;;;;;;4990061;28;20928;-81
2021/10/12 09:43:08;;;;;;;4.20;3.63;;;12.50;99.90;;;;;;5007731;28;20476;-79
2021/10/12 09:45:40;;;;;;;2.53;2.33;;;13.50;99.90;;;;;;5006975;28;20452;-81
2021/10/12 09:48:25;;;;;;;6.40;2.90;;;13.20;99.90;;;;;;5022341;28;20435;-83
2021/10/12 09:51:07;;;;;;;3.30;3.00;;;13.10;99.90;;;;;;5009646;28;20436;-82
2021/10/12 09:53:33;;;;;;;2.93;2.67;;;13.10;99.90;;;;;;5003984;28;21303;-80
2021/10/12 09:55:59;;;;;;;2.60;2.40;;;13.10;99.90;;;;;;5026957;28;20450;-83
2021/10/12 09:58:30;;;;;;;3.93;2.40;;;13.00;99.90;;;;;;5015378;28;20826;-80
2021/10/12 10:00:59;;;;;;;2.87;2.67;;;12.70;99.90;;;;;;5015726;28;20492;-83
2021/10/12 10:03:27;;;;;;;6.80;3.47;;;12.40;99.90;;;;;;5011185;28;20788;-82
2021/10/12 10:05:58;;;;;;;2.80;2.50;;;12.30;99.90;;;;;;5009446;28;20547;-82
2021/10/12 10:08:26;;;;;;;4.53;3.33;;;12.30;99.90;;;;;;5011698;28;20428;-83
2021/10/12 10:10:52;;;;;;;2.90;2.70;;;12.40;99.90;;;;;;5013921;28;20460;-81
2021/10/12 10:13:19;;;;;;;2.97;2.70;;;12.50;99.90;;;;;;5017153;28;20502;-82
2021/10/12 10:15:46;;;;;;;3.00;2.53;;;12.70;99.90;;;;;;5015929;28;20447;-83
2021/10/12 10:18:13;;;;;;;3.13;2.87;;;13.00;99.90;;;;;;5012789;28;20472;-82
2021/10/12 10:20:40;;;;;;;2.97;2.60;;;13.10;99.90;;;;;;5013768;28;20467;-81
2021/10/12 10:23:08;;;;;;;3.17;2.57;;;13.60;99.90;;;;;;5012264;28;20493;-82
2021/10/12 10:25:40;;;;;;;3.30;3.10;;;13.90;99.90;;;;;;5013409;28;20810;-81
2021/10/12 10:28:24;;;;;;;3.13;2.87;;;13.80;99.90;;;;;;5007512;28;20569;-81
2021/10/12 10:30:57;;;;;;;2.40;2.30;;;13.60;99.90;;;;;;5011118;28;20556;-82
2021/10/12 10:33:30;;;;;;;5.00;2.80;;;13.40;99.90;;;;;;5029349;28;20928;-79
2021/10/12 10:35:59;;;;;;;3.23;2.93;;;13.20;99.90;;;;;;4994656;28;20444;-81
2021/10/12 10:38:45;;;;;;;3.77;3.43;;;13.10;99.90;;;;;;5012684;28;20460;-79
2021/10/12 10:41:26;;;;;;;4.90;3.60;;;12.70;99.90;;;;;;5014774;28;20459;-81
2021/10/12 10:43:56;;;;;;;4.07;3.33;;;12.60;99.90;;;;;;5010536;28;20488;-79
2021/10/12 10:46:38;;;;;;;3.67;3.00;;;12.40;99.90;;;;;;5014250;28;21024;-80
2021/10/12 10:49:19;;;;;;;3.40;3.20;;;12.30;99.90;;;;;;5013695;28;20439;-80
2021/10/12 10:52:01;;;;;;;6.10;3.50;;;12.20;99.90;;;;;;5019284;28;20459;-81
2021/10/12 10:54:51;;;;;;;3.30;3.00;;;12.10;99.90;;;;;;5016927;28;20482;-81
2021/10/12 10:57:19;;;;;;;6.10;3.50;;;11.90;99.90;;;;;;5016548;28;20456;-81
2021/10/12 10:59:46;;;;;;;3.40;3.10;;;11.90;99.90;;;;;;5017610;28;20448;-81
2021/10/12 11:02:42;;;;;;;6.47;3.73;;;12.10;99.90;;;;;;5022638;28;20443;-82
2021/10/12 11:05:08;;;;;;;5.97;4.13;;;12.10;99.90;;;;;;5019257;28;20436;-79
2021/10/12 11:07:34;;;;;;;7.47;4.10;;;12.10;99.90;;;;;;5013170;28;20494;-82
2021/10/12 11:10:03;;;;;;;4.63;3.50;;;12.10;99.90;;;;;;5016162;28;20430;-80
2021/10/12 11:12:31;;;;;;;5.67;4.07;;;12.10;99.90;;;;;;5016254;28;20181;-80
2021/10/12 11:15:07;;;;;;;3.60;3.30;;;12.10;99.90;;;;;;5000944;28;20508;-79
2021/10/12 11:17:33;;;;;;;7.27;3.30;;;12.10;99.90;;;;;;5014442;28;20432;-81
2021/10/12 11:20:06;;;;;;;3.60;3.20;;;11.70;99.90;;;;;;4997889;28;20428;-81
2021/10/12 11:22:38;;;;;;;7.83;4.37;;;11.80;99.90;;;;;;5018448;28;20475;-82
2021/10/12 11:25:05;;;;;;;6.73;4.23;;;11.80;99.90;;;;;;5006884;28;20566;-81
2021/10/12 11:27:41;;;;;;;5.43;4.57;;;12.10;99.90;;;;;;4994213;28;20441;-81
2021/10/12 11:30:09;;;;;;;4.37;3.97;;;12.10;99.90;;;;;;5008816;28;20448;-79
2021/10/12 11:32:35;;;;;;;7.50;3.87;;;12.40;99.90;;;;;;4999245;28;20472;-79
2021/10/12 11:35:10;;;;;;;7.40;3.87;;;12.40;99.90;;;;;;4972938;28;20963;-80
2021/10/12 11:37:51;;;;;;;4.10;3.73;;;12.30;99.90;;;;;;4978056;28;20795;-80
2021/10/12 11:40:19;;;;;;;6.63;6.13;;;12.40;99.90;;;;;;5009464;28;20495;-80
2021/10/12 11:42:45;;;;;;;4.00;3.70;;;12.50;99.90;;;;;;5008036;28;20460;-81
2021/10/12 11:45:11;;;;;;;3.67;3.20;;;12.70;99.90;;;;;;4977955;28;20424;-81
2021/10/12 11:47:39;;;;;;;5.07;4.53;;;12.90;99.90;;;;;;4976046;28;20962;-80
2021/10/12 11:50:09;;;;;;;4.20;3.77;;;13.20;99.90;;;;;;5011453;28;20792;-81
2021/10/12 11:52:35;;;;;;;10.27;4.07;;;13.30;99.90;;;;;;5008379;28;20437;-80
2021/10/12 11:55:06;;;;;;;6.03;3.80;;;13.30;99.90;;;;;;4972488;28;20485;-81
2021/10/12 11:57:32;;;;;;;5.77;4.43;;;12.80;99.90;;;;;;5009982;28;20539;-81
2021/10/12 11:59:57;;;;;;;5.00;3.63;;;12.60;99.90;;;;;;5010408;28;20534;-80
2021/10/12 12:02:24;;;;;;;5.63;4.07;;;12.60;99.90;;;;;;4998797;28;20765;-80
2021/10/12 12:04:51;;;;;;;5.60;4.80;;;12.70;99.90;;;;;;5006723;28;20652;-81
2021/10/12 12:07:17;;;;;;;5.53;4.00;;;12.80;99.90;;;;;;4981633;28;20428;-81
2021/10/12 12:09:46;;;;;;;4.80;3.67;;;12.70;99.90;;;;;;5009658;28;20457;-81
2021/10/12 12:12:13;;;;;;;4.20;3.80;;;12.70;99.90;;;;;;5012415;28;20432;-81
2021/10/12 12:14:40;;;;;;;4.93;3.90;;;12.70;99.90;;;;;;5011606;28;20444;-81
2021/10/12 12:17:09;;;;;;;7.50;4.40;;;12.60;99.90;;;;;;5010199;28;20445;-80
2021/10/12 12:19:54;;;;;;;4.53;4.03;;;12.70;99.90;;;;;;5013944;28;20483;-82
2021/10/12 12:22:25;;;;;;;5.33;4.43;;;12.70;99.90;;;;;;4994604;28;20486;-77
2021/10/12 12:24:59;;;;;;;6.03;4.00;;;12.50;99.90;;;;;;5016296;28;20427;-79
2021/10/12 12:27:27;;;;;;;5.10;4.70;;;12.50;99.90;;;;;;5016518;28;20444;-82
2021/10/12 12:30:05;;;;;;;4.57;4.17;;;12.30;99.90;;;;;;5013270;28;20433;-81
2021/10/12 12:32:35;;;;;;;5.20;4.70;;;12.40;99.90;;;;;;5015809;28;20471;-80
2021/10/12 12:35:05;;;;;;;5.70;4.27;;;12.40;99.90;;;;;;5015807;28;20436;-82
2021/10/12 12:37:31;;;;;;;8.23;4.23;;;12.30;99.90;;;;;;5000406;28;20444;-80
2021/10/12 12:40:00;;;;;;;4.80;4.40;;;12.10;99.90;;;;;;5005311;28;20509;-78
2021/10/12 12:42:33;;;;;;;6.63;4.03;;;12.00;99.90;;;;;;5007338;28;20463;-82